Time;durP1;ratioP1;P1;durP2;ratioP2;P2;SDS_P1;SDS_P2;PMS_P1;PMS_P2;Temp;Humidity;BMP_temperature;BMP_pressure;BME280_temperature;BME280_humidity;BME280_pressure;Samples;Min_cycle;Max_cycle;Signal;HPM_P1;HPM_P2
2021/04/21 00:01:30;;;;;;;9.65;7.55;;;9.20;68.80;;;;;;5089886;28;27479;-46
2021/04/21 00:04:27;;;;;;;9.13;6.47;;;9.10;69.00;;;;;;5104064;28;27485;-46
2021/04/21 00:07:36;;;;;;;9.48;7.18;;;9.10;68.90;;;;;;5104912;28;27331;-46
2021/04/21 00:10:30;;;;;;;8.77;7.07;;;9.00;68.80;;;;;;5104364;28;27498;-47
2021/04/21 00:13:35;;;;;;;10.13;7.40;;;9.00;69.00;;;;;;5061275;28;27418;-46
2021/04/21 00:16:26;;;;;;;10.38;7.65;;;9.00;68.90;;;;;;5104464;28;27298;-46
2021/04/21 00:19:34;;;;;;;12.02;8.15;;;9.00;68.80;;;;;;5104100;28;27920;-47
2021/04/21 00:22:41;;;;;;;10.48;8.32;;;8.90;69.00;;;;;;5103822;28;27379;-46
2021/04/21 00:25:49;;;;;;;15.50;8.05;;;8.90;69.10;;;;;;5104545;28;27496;-46
2021/04/21 00:28:56;;;;;;;14.25;8.43;;;8.90;69.20;;;;;;5104326;28;27578;-46
2021/04/21 00:32:23;;;;;;;10.18;7.30;;;8.80;69.20;;;;;;5103147;28;27384;-46
2021/04/21 00:35:49;;;;;;;10.27;7.43;;;8.80;69.40;;;;;;5102924;28;27337;-48
2021/04/21 00:38:54;;;;;;;12.98;7.82;;;8.70;69.40;;;;;;5103074;28;27387;-46
2021/04/21 00:41:57;;;;;;;12.43;8.27;;;8.70;69.40;;;;;;5103527;28;27655;-46
2021/04/21 00:45:11;;;;;;;10.52;7.90;;;8.60;69.30;;;;;;5100009;28;27584;-44
2021/04/21 00:48:08;;;;;;;11.35;8.18;;;8.60;69.30;;;;;;5104334;28;27403;-46
2021/04/21 00:51:34;;;;;;;11.88;8.35;;;8.60;69.30;;;;;;5102254;28;27426;-44
2021/04/21 00:54:57;;;;;;;11.20;8.05;;;8.60;69.40;;;;;;5103644;28;27388;-45
2021/04/21 00:58:31;;;;;;;12.85;8.25;;;8.50;69.30;;;;;;5103954;28;27425;-46
2021/04/21 01:01:57;;;;;;;11.10;8.00;;;8.50;69.40;;;;;;5100020;28;27492;-46
2021/04/21 01:05:08;;;;;;;10.27;8.20;;;8.50;69.50;;;;;;5087854;28;27353;-46
2021/04/21 01:08:26;;;;;;;10.38;8.20;;;8.40;69.30;;;;;;5102087;28;27447;-46
2021/04/21 01:11:47;;;;;;;10.68;7.97;;;8.40;69.20;;;;;;5099907;28;27398;-46
2021/04/21 01:15:05;;;;;;;8.95;7.68;;;8.40;69.30;;;;;;5099772;28;27541;-46
2021/04/21 01:18:32;;;;;;;12.77;9.43;;;8.40;69.20;;;;;;5103512;28;27383;-46
2021/04/21 01:21:49;;;;;;;11.77;8.98;;;8.40;69.30;;;;;;5103052;28;27417;-46
2021/04/21 01:25:16;;;;;;;12.25;8.82;;;8.30;69.20;;;;;;5103122;28;27473;-46
2021/04/21 01:28:12;;;;;;;13.70;9.50;;;8.30;69.20;;;;;;5103570;28;27659;-46
2021/04/21 01:31:04;;;;;;;12.93;8.85;;;8.30;69.20;;;;;;5103084;28;27494;-45
2021/04/21 01:34:31;;;;;;;13.25;8.68;;;8.20;69.20;;;;;;5102697;28;27355;-46
2021/04/21 01:37:54;;;;;;;14.50;9.00;;;8.20;69.30;;;;;;5103079;28;28045;-49
2021/04/21 01:41:04;;;;;;;15.10;8.95;;;8.20;69.30;;;;;;5103753;28;27366;-49
2021/04/21 01:44:45;;;;;;;12.48;8.25;;;8.10;69.30;;;;;;5103130;28;27431;-46
2021/04/21 01:47:52;;;;;;;12.27;8.98;;;8.10;69.50;;;;;;5102064;28;27491;-46
2021/04/21 01:51:06;;;;;;;11.65;8.55;;;8.00;69.50;;;;;;5102574;28;27411;-47
2021/04/21 01:54:13;;;;;;;13.45;9.40;;;8.00;69.50;;;;;;5101959;28;27438;-47
2021/04/21 01:57:40;;;;;;;12.40;8.85;;;7.90;69.50;;;;;;5103557;28;27481;-46
2021/04/21 02:01:09;;;;;;;13.05;9.20;;;7.90;69.70;;;;;;5099978;27;27446;-49
2021/04/21 02:04:22;;;;;;;12.68;8.82;;;7.90;69.60;;;;;;5106309;28;27399;-47
2021/04/21 02:07:57;;;;;;;12.35;8.73;;;7.80;69.50;;;;;;5107057;28;27406;-48
2021/04/21 02:11:15;;;;;;;13.77;8.80;;;7.80;69.70;;;;;;5105900;28;27344;-46
2021/04/21 02:14:07;;;;;;;12.32;9.35;;;7.70;69.70;;;;;;5105170;28;27586;-46
2021/04/21 02:17:51;;;;;;;13.27;9.00;;;7.70;69.70;;;;;;5106231;28;27663;-46
2021/04/21 02:21:19;;;;;;;13.43;9.48;;;7.60;69.50;;;;;;5106424;28;27491;-46
2021/04/21 02:24:42;;;;;;;13.05;9.13;;;7.60;69.60;;;;;;5106112;28;27329;-47
2021/04/21 02:28:13;;;;;;;13.20;9.23;;;7.60;69.70;;;;;;5106560;28;27384;-46
2021/04/21 02:31:51;;;;;;;16.23;9.50;;;7.60;69.70;;;;;;5105934;28;27883;-47
2021/04/21 02:35:09;;;;;;;14.68;9.43;;;7.60;69.70;;;;;;5105808;28;27423;-45
2021/04/21 02:38:51;;;;;;;16.15;10.55;;;7.60;69.70;;;;;;5103391;28;27347;-45
2021/04/21 02:42:51;;;;;;;13.18;9.15;;;7.50;69.50;;;;;;5105470;28;27582;-45
2021/04/21 02:46:04;;;;;;;18.77;9.27;;;7.50;69.60;;;;;;5105133;28;27469;-46
2021/04/21 02:49:11;;;;;;;12.88;9.02;;;7.50;69.50;;;;;;5106456;28;27434;-46
2021/04/21 02:52:54;;;;;;;13.95;9.55;;;7.50;69.50;;;;;;5105664;28;27489;-46
2021/04/21 02:55:59;;;;;;;16.63;9.75;;;7.40;69.60;;;;;;5104399;28;27682;-46
2021/04/21 02:58:58;;;;;;;12.98;9.55;;;7.40;69.70;;;;;;5106314;28;27347;-46
2021/04/21 03:02:05;;;;;;;15.55;9.98;;;7.40;69.80;;;;;;5105392;28;27597;-48
2021/04/21 03:06:04;;;;;;;11.63;8.32;;;7.30;69.90;;;;;;5102548;28;27475;-47
2021/04/21 03:09:14;;;;;;;14.20;10.32;;;7.30;69.80;;;;;;5104004;28;27408;-45
2021/04/21 03:12:22;;;;;;;16.48;10.18;;;7.20;69.90;;;;;;5103774;28;27556;-47
2021/04/21 03:15:54;;;;;;;15.05;10.07;;;7.20;70.00;;;;;;5104323;28;27321;-46
2021/04/21 03:19:04;;;;;;;15.35;9.98;;;7.20;70.00;;;;;;5105314;28;27408;-45
2021/04/21 03:22:35;;;;;;;14.18;9.15;;;7.10;69.90;;;;;;5104979;28;27339;-46
2021/04/21 03:25:33;;;;;;;14.02;9.75;;;7.10;70.00;;;;;;5105433;28;27459;-46
2021/04/21 03:28:39;;;;;;;14.48;9.98;;;7.10;70.00;;;;;;5104816;28;27499;-46
2021/04/21 03:31:44;;;;;;;20.05;10.20;;;7.10;69.90;;;;;;5105033;28;27412;-47
2021/04/21 03:35:11;;;;;;;15.60;10.32;;;7.10;69.90;;;;;;5104126;28;27335;-47
2021/04/21 03:38:58;;;;;;;15.55;10.25;;;7.00;69.80;;;;;;5105111;28;27518;-48
2021/04/21 03:42:15;;;;;;;16.10;10.50;;;7.10;69.90;;;;;;5104792;28;27446;-46
2021/04/21 03:45:41;;;;;;;15.73;9.90;;;7.00;69.80;;;;;;5104647;28;27484;-47
2021/04/21 03:48:49;;;;;;;15.80;9.77;;;7.00;70.00;;;;;;5105180;28;27683;-47
2021/04/21 03:51:55;;;;;;;14.23;10.23;;;7.00;69.80;;;;;;5103150;28;27977;-46
2021/04/21 03:55:01;;;;;;;15.68;10.20;;;6.90;69.80;;;;;;5104049;28;27471;-45
2021/04/21 03:58:09;;;;;;;15.13;9.27;;;6.90;69.90;;;;;;5104523;28;27502;-45
2021/04/21 04:01:21;;;;;;;15.75;10.73;;;6.90;69.80;;;;;;5104062;28;27469;-50
2021/04/21 04:04:30;;;;;;;14.40;10.07;;;6.90;69.80;;;;;;5105274;28;27890;-47
2021/04/21 04:07:39;;;;;;;14.40;9.93;;;6.80;70.00;;;;;;5104795;28;27493;-47
2021/04/21 04:10:36;;;;;;;14.38;10.40;;;6.80;69.90;;;;;;5105948;28;27340;-46
2021/04/21 04:13:43;;;;;;;20.35;10.95;;;6.80;69.90;;;;;;5105999;28;27461;-46
2021/04/21 04:16:52;;;;;;;18.55;10.32;;;6.80;70.00;;;;;;5105400;28;27845;-46
2021/04/21 04:20:03;;;;;;;15.50;9.60;;;6.70;70.00;;;;;;5105839;28;27425;-46
2021/04/21 04:23:31;;;;;;;14.73;10.70;;;6.70;70.10;;;;;;5104358;28;27476;-45
2021/04/21 04:26:23;;;;;;;15.80;10.82;;;6.70;70.20;;;;;;5104113;28;27476;-46
2021/04/21 04:29:32;;;;;;;16.23;9.90;;;6.70;71.00;;;;;;5090491;28;27945;-46
2021/04/21 04:32:40;;;;;;;17.25;11.02;;;6.60;70.30;;;;;;5103680;28;27397;-46
2021/04/21 04:35:45;;;;;;;14.93;10.00;;;6.60;70.30;;;;;;5104442;28;27378;-47
2021/04/21 04:39:13;;;;;;;15.88;10.68;;;6.60;70.30;;;;;;5105888;28;27394;-47
2021/04/21 04:42:21;;;;;;;14.13;10.40;;;6.60;70.30;;;;;;5105169;28;27412;-46
2021/04/21 04:45:34;;;;;;;15.52;10.95;;;6.60;70.40;;;;;;5105047;28;27427;-46
2021/04/21 04:48:49;;;;;;;15.55;10.50;;;6.60;70.40;;;;;;5105708;28;27399;-47
2021/04/21 04:52:01;;;;;;;17.92;11.07;;;6.60;70.50;;;;;;5105142;28;27398;-46
2021/04/21 04:54:59;;;;;;;14.70;10.88;;;6.60;70.50;;;;;;5104684;28;27493;-44
2021/04/21 04:58:04;;;;;;;13.77;10.38;;;6.60;71.30;;;;;;5103236;28;27422;-46
2021/04/21 05:00:50;;;;;;;23.63;11.68;;;6.60;70.60;;;;;;5105177;28;27465;-48
2021/04/21 05:04:08;;;;;;;16.52;10.98;;;6.60;70.50;;;;;;5104481;28;27483;-45
2021/04/21 05:07:34;;;;;;;18.83;11.85;;;6.60;70.70;;;;;;5101806;28;27853;-47
2021/04/21 05:10:47;;;;;;;16.48;10.82;;;6.60;70.90;;;;;;5103140;28;27341;-47
2021/04/21 05:14:23;;;;;;;13.70;9.93;;;6.60;71.00;;;;;;5104662;28;27348;-45
2021/04/21 05:17:48;;;;;;;15.20;10.43;;;6.60;71.20;;;;;;5104920;28;27622;-46
2021/04/21 05:21:27;;;;;;;17.48;11.98;;;6.60;71.40;;;;;;5101632;28;27354;-46
2021/04/21 05:25:01;;;;;;;20.88;11.73;;;6.60;71.40;;;;;;5104588;28;27530;-47
2021/04/21 05:28:07;;;;;;;15.32;10.82;;;6.70;71.60;;;;;;5104939;28;27524;-46
2021/04/21 05:32:00;;;;;;;15.88;10.98;;;6.70;71.60;;;;;;5104281;28;27549;-48
2021/04/21 05:35:23;;;;;;;18.02;11.75;;;6.70;71.60;;;;;;5101469;28;27398;-50
2021/04/21 05:39:27;;;;;;;16.52;11.02;;;6.70;71.90;;;;;;5104037;28;28532;-46
2021/04/21 05:43:27;;;;;;;17.35;12.23;;;6.70;71.90;;;;;;5103338;28;27466;-49
2021/04/21 05:47:13;;;;;;;17.15;11.70;;;6.80;72.00;;;;;;5103596;28;27422;-49
2021/04/21 05:50:28;;;;;;;18.10;12.75;;;6.90;72.20;;;;;;5103807;28;27436;-52
2021/04/21 05:54:16;;;;;;;16.52;11.38;;;6.90;72.30;;;;;;5091652;28;27337;-46
2021/04/21 05:57:20;;;;;;;16.58;11.23;;;7.00;72.60;;;;;;5104199;28;27355;-51
2021/04/21 06:00:11;;;;;;;18.45;12.82;;;7.10;72.80;;;;;;5104683;28;27388;-48
2021/04/21 06:03:37;;;;;;;15.40;11.43;;;7.10;73.00;;;;;;5103901;28;27455;-49
2021/04/21 06:07:04;;;;;;;19.95;13.38;;;7.20;73.30;;;;;;5100242;28;27466;-48
2021/04/21 06:10:19;;;;;;;17.60;12.18;;;7.30;73.50;;;;;;5104367;28;27395;-50
2021/04/21 06:13:51;;;;;;;19.98;13.95;;;7.30;73.80;;;;;;5104086;28;27416;-48
2021/04/21 06:17:17;;;;;;;20.75;13.57;;;7.40;73.90;;;;;;5101960;28;27378;-50
2021/04/21 06:20:51;;;;;;;20.75;13.48;;;7.50;74.00;;;;;;5103722;28;27567;-49
2021/04/21 06:24:18;;;;;;;20.27;15.05;;;7.60;74.00;;;;;;5100882;28;27393;-48
2021/04/21 06:27:51;;;;;;;22.65;15.52;;;7.80;74.00;;;;;;5104149;28;27344;-48
2021/04/21 06:31:24;;;;;;;23.85;14.63;;;8.10;73.80;;;;;;5103963;28;27386;-48
2021/04/21 06:34:58;;;;;;;20.77;13.55;;;8.50;74.00;;;;;;5104237;28;27464;-46
2021/04/21 06:38:29;;;;;;;19.85;13.38;;;8.90;73.10;;;;;;5103625;28;27482;-47
2021/04/21 06:41:24;;;;;;;19.27;12.95;;;9.40;71.40;;;;;;5103931;28;27370;-47
2021/04/21 06:44:51;;;;;;;19.58;13.43;;;9.90;69.60;;;;;;5102556;28;27505;-47
2021/04/21 06:48:24;;;;;;;18.92;13.10;;;10.20;67.80;;;;;;5103782;27;27419;-47
2021/04/21 06:51:58;;;;;;;17.65;12.55;;;10.70;66.50;;;;;;5107643;28;27398;-47
2021/04/21 06:55:08;;;;;;;22.02;13.70;;;11.10;65.90;;;;;;5107226;28;27411;-47
2021/04/21 06:58:17;;;;;;;18.42;13.43;;;11.40;65.10;;;;;;5107201;28;27406;-46
2021/04/21 07:01:29;;;;;;;19.38;12.60;;;11.70;64.50;;;;;;5106969;28;27575;-47
2021/04/21 07:04:40;;;;;;;20.00;13.45;;;12.00;64.00;;;;;;5107505;28;27336;-48
2021/04/21 07:07:31;;;;;;;17.95;13.13;;;12.30;64.30;;;;;;5106570;28;27476;-50
2021/04/21 07:10:21;;;;;;;17.63;13.85;;;12.50;63.70;;;;;;5106995;28;27382;-48
2021/04/21 07:13:27;;;;;;;18.45;13.65;;;12.70;63.50;;;;;;5105997;28;27360;-50
2021/04/21 07:16:27;;;;;;;17.33;13.00;;;12.90;63.00;;;;;;5106795;28;27457;-47
2021/04/21 07:19:19;;;;;;;19.48;13.63;;;13.20;62.80;;;;;;5106147;28;27531;-47
2021/04/21 07:22:13;;;;;;;20.25;13.25;;;13.40;62.40;;;;;;5103494;28;27308;-47
2021/04/21 07:25:05;;;;;;;18.55;13.80;;;13.70;63.00;;;;;;5106280;28;27336;-48
2021/04/21 07:28:01;;;;;;;20.52;15.60;;;14.00;61.60;;;;;;5103784;28;27396;-48
2021/04/21 07:30:59;;;;;;;19.20;13.90;;;14.20;62.40;;;;;;5092261;28;27427;-48
2021/04/21 07:33:46;;;;;;;23.65;14.32;;;14.40;62.10;;;;;;5106178;28;27313;-48
2021/04/21 07:36:43;;;;;;;21.38;14.38;;;14.60;60.90;;;;;;5103039;28;27316;-48
2021/04/21 07:39:46;;;;;;;24.48;14.05;;;14.80;59.90;;;;;;5092531;28;27425;-48
2021/04/21 07:42:44;;;;;;;19.83;15.30;;;14.90;61.60;;;;;;5106794;28;27365;-47
2021/04/21 07:45:51;;;;;;;22.50;15.50;;;15.20;60.90;;;;;;5105894;28;27944;-50
2021/04/21 07:49:02;;;;;;;18.30;14.32;;;15.50;60.40;;;;;;5106342;28;27454;-48
2021/04/21 07:51:53;;;;;;;21.80;15.57;;;15.70;62.00;;;;;;5104869;28;27423;-49
2021/04/21 07:54:43;;;;;;;22.77;15.95;;;16.00;61.60;;;;;;5106615;28;27370;-48
2021/04/21 07:57:36;;;;;;;22.52;16.25;;;16.20;59.60;;;;;;5105131;28;27446;-48
2021/04/21 08:00:39;;;;;;;24.92;16.00;;;16.50;59.90;;;;;;5105966;27;27419;-49
2021/04/21 08:03:30;;;;;;;19.50;15.02;;;16.70;59.40;;;;;;5106502;28;27414;-47
2021/04/21 08:06:15;;;;;;;21.92;15.88;;;17.00;59.10;;;;;;5106003;28;27410;-46
2021/04/21 08:09:05;;;;;;;19.95;16.13;;;17.30;59.10;;;;;;5106237;28;27477;-46
2021/04/21 08:12:12;;;;;;;21.13;15.68;;;17.50;58.20;;;;;;5105973;28;27361;-44
2021/04/21 08:15:25;;;;;;;22.38;17.23;;;17.80;56.90;;;;;;5102769;28;27399;-48
2021/04/21 08:18:18;;;;;;;20.90;16.33;;;18.10;57.80;;;;;;5106276;28;27385;-48
2021/04/21 08:21:08;;;;;;;24.95;18.92;;;18.30;57.70;;;;;;5105939;28;27394;-48
2021/04/21 08:24:14;;;;;;;23.23;17.92;;;18.60;56.20;;;;;;5105847;28;27476;-48
2021/04/21 08:27:11;;;;;;;22.40;17.52;;;18.70;55.00;;;;;;5106168;28;27469;-48
2021/04/21 08:30:03;;;;;;;26.23;17.38;;;18.80;54.00;;;;;;5105749;28;27359;-47
2021/04/21 08:32:53;;;;;;;24.60;19.08;;;19.00;53.50;;;;;;5102704;28;27461;-47
2021/04/21 08:35:52;;;;;;;24.45;18.50;;;19.20;55.60;;;;;;5102469;28;27411;-48
2021/04/21 08:39:08;;;;;;;25.17;18.23;;;19.20;54.30;;;;;;5105668;28;27516;-48
2021/04/21 08:42:06;;;;;;;20.63;17.35;;;19.40;55.00;;;;;;5105817;28;27451;-50
2021/04/21 08:45:03;;;;;;;23.73;17.40;;;19.50;54.40;;;;;;5105097;28;27939;-47
2021/04/21 08:47:55;;;;;;;24.25;18.63;;;19.60;55.60;;;;;;5102245;28;27351;-48
2021/04/21 08:50:48;;;;;;;23.90;18.67;;;19.70;56.10;;;;;;5105511;28;27576;-48
2021/04/21 08:53:46;;;;;;;24.23;18.33;;;19.80;53.60;;;;;;5068334;28;27506;-46
2021/04/21 08:57:02;;;;;;;23.83;18.38;;;20.00;54.20;;;;;;5083099;28;27889;-47
2021/04/21 08:59:55;;;;;;;23.42;16.92;;;20.10;53.10;;;;;;5082947;28;28230;-46
2021/04/21 09:02:47;;;;;;;21.67;16.85;;;20.20;54.90;;;;;;5041820;28;27446;-47
2021/04/21 09:05:38;;;;;;;20.38;15.93;;;20.40;56.00;;;;;;5083499;28;27448;-48
2021/04/21 09:08:29;;;;;;;23.08;16.88;;;20.60;53.30;;;;;;5067447;28;27424;-48
2021/04/21 09:11:21;;;;;;;22.92;16.75;;;20.70;52.70;;;;;;5064724;28;27429;-48
2021/04/21 09:14:13;;;;;;;20.35;16.15;;;20.90;53.60;;;;;;5083244;28;27374;-50
2021/04/21 09:17:05;;;;;;;23.05;15.35;;;21.10;53.20;;;;;;5082752;28;27346;-49
2021/04/21 09:19:56;;;;;;;21.88;15.35;;;21.20;52.40;;;;;;5082696;28;27822;-47
2021/04/21 09:23:22;;;;;;;18.65;14.85;;;21.40;54.80;;;;;;5083382;28;27341;-49
2021/04/21 09:26:37;;;;;;;20.50;16.15;;;21.50;52.50;;;;;;5039354;28;27505;-48
2021/04/21 09:30:08;;;;;;;19.25;14.85;;;21.60;51.40;;;;;;5041963;28;27457;-48
2021/04/21 09:33:39;;;;;;;16.50;12.90;;;21.70;53.70;;;;;;5041505;28;27596;-50
2021/04/21 09:37:13;;;;;;;16.60;13.20;;;21.80;51.50;;;;;;5041373;28;27607;-50
2021/04/21 09:40:58;;;;;;;16.52;12.68;;;21.90;52.40;;;;;;5041581;28;27443;-49
2021/04/21 09:44:45;;;;;;;;;;;;;;;;;;;;;
2021/04/21 09:48:33;;;;;;;16.52;12.32;;;22.00;49.80;;;;;;5041974;28;28008;-49
2021/04/21 09:51:44;;;;;;;13.32;11.02;;;22.10;51.30;;;;;;5042154;28;27428;-49
2021/04/21 09:54:41;;;;;;;13.30;11.20;;;22.20;49.70;;;;;;5042288;28;27435;-49
2021/04/21 09:57:34;;;;;;;13.05;10.70;;;22.30;48.40;;;;;;5041637;28;27456;-51
2021/04/21 10:00:25;;;;;;;15.32;10.98;;;22.50;49.70;;;;;;5089487;28;27418;-50
2021/04/21 10:03:19;;;;;;;12.27;9.90;;;22.60;51.90;;;;;;5104674;28;27328;-50
2021/04/21 10:06:40;;;;;;;11.35;9.65;;;22.80;51.30;;;;;;5104448;28;27378;-50
2021/04/21 10:09:33;;;;;;;11.38;9.35;;;22.90;51.10;;;;;;5104062;28;27541;-48
2021/04/21 10:12:26;;;;;;;11.30;9.60;;;23.10;50.50;;;;;;5104270;28;27419;-49
2021/04/21 10:15:22;;;;;;;11.43;9.52;;;23.10;51.10;;;;;;5104233;28;27378;-49
2021/04/21 10:18:13;;;;;;;10.82;8.73;;;23.20;51.10;;;;;;5104250;28;27457;-49
2021/04/21 10:21:11;;;;;;;10.60;8.88;;;23.20;52.10;;;;;;5104209;28;26905;-49
2021/04/21 10:24:02;;;;;;;9.70;8.13;;;23.30;52.00;;;;;;5107398;27;27609;-53
2021/04/21 10:26:54;;;;;;;11.70;8.60;;;23.30;49.80;;;;;;5092639;28;27395;-49
2021/04/21 10:29:50;;;;;;;10.38;8.25;;;23.40;48.80;;;;;;5107681;28;27448;-51
2021/04/21 10:32:42;;;;;;;9.65;8.35;;;23.40;50.20;;;;;;5107617;28;27461;-49
2021/04/21 10:35:44;;;;;;;9.73;7.90;;;23.40;50.50;;;;;;5107749;28;27415;-50
2021/04/21 10:38:56;;;;;;;10.75;8.27;;;23.10;51.80;;;;;;5106737;28;27344;-49
2021/04/21 10:42:01;;;;;;;11.63;8.27;;;22.70;52.60;;;;;;5103811;28;27404;-50
2021/04/21 10:44:52;;;;;;;9.55;8.18;;;22.20;52.20;;;;;;5107367;28;27411;-47
2021/04/21 10:47:50;;;;;;;8.50;7.20;;;21.80;53.60;;;;;;5107618;28;27841;-48
2021/04/21 10:50:45;;;;;;;11.23;7.90;;;21.70;53.50;;;;;;5107525;28;27462;-49
2021/04/21 10:53:39;;;;;;;9.27;7.60;;;21.50;53.90;;;;;;5104328;28;27402;-47
2021/04/21 10:56:36;;;;;;;8.52;7.63;;;21.20;54.00;;;;;;5107091;28;27382;-52
2021/04/21 10:59:49;;;;;;;9.38;8.00;;;20.90;54.70;;;;;;5103168;28;27470;-49
2021/04/21 11:03:25;;;;;;;9.80;6.85;;;20.50;55.50;;;;;;5106217;28;27449;-48
2021/04/21 11:06:50;;;;;;;8.95;6.93;;;20.30;55.80;;;;;;5107157;28;27470;-51
2021/04/21 11:10:30;;;;;;;8.40;7.45;;;20.40;55.00;;;;;;5104020;28;27453;-48
2021/04/21 11:13:40;;;;;;;8.18;7.22;;;20.80;55.90;;;;;;5095481;27;28002;-52
2021/04/21 11:16:34;;;;;;;9.18;6.13;;;21.20;55.30;;;;;;5106646;28;27431;-48
2021/04/21 11:19:23;;;;;;;8.23;6.88;;;21.50;54.80;;;;;;5106502;28;27407;-54
2021/04/21 11:22:30;;;;;;;8.23;6.88;;;21.50;54.20;;;;;;5106905;28;27453;-49
2021/04/21 11:25:24;;;;;;;8.10;6.90;;;21.40;55.90;;;;;;5103576;28;27869;-47
2021/04/21 11:28:49;;;;;;;7.47;6.57;;;21.40;55.20;;;;;;5106739;28;27399;-50
2021/04/21 11:31:48;;;;;;;9.73;7.93;;;21.50;53.50;;;;;;5103924;28;27476;-49
2021/04/21 11:34:35;;;;;;;7.60;6.72;;;21.60;54.30;;;;;;5106030;28;27445;-46
2021/04/21 11:37:34;;;;;;;7.82;6.95;;;21.80;55.40;;;;;;5106279;28;27434;-54
2021/04/21 11:40:27;;;;;;;8.65;7.22;;;22.00;56.20;;;;;;5106111;28;27445;-51
2021/04/21 11:43:52;;;;;;;7.80;7.00;;;22.20;57.90;;;;;;5106843;28;27408;-52
2021/04/21 11:46:59;;;;;;;8.48;6.43;;;22.40;56.70;;;;;;5105491;28;27666;-51
2021/04/21 11:50:02;;;;;;;9.75;6.57;;;22.50;53.70;;;;;;5106336;28;27400;-50
2021/04/21 11:52:58;;;;;;;7.97;6.70;;;22.70;53.50;;;;;;5106317;28;27461;-50
2021/04/21 11:56:17;;;;;;;7.45;6.18;;;22.80;55.60;;;;;;5106314;28;27324;-50
2021/04/21 11:59:07;;;;;;;7.40;6.10;;;22.80;52.20;;;;;;5106135;28;27457;-52
2021/04/21 12:02:00;;;;;;;8.65;7.35;;;22.80;52.60;;;;;;5105456;28;27794;-50
2021/04/21 12:05:12;;;;;;;8.13;6.18;;;22.90;53.90;;;;;;5090586;28;27522;-49
2021/04/21 12:08:11;;;;;;;7.97;6.50;;;22.90;54.10;;;;;;5102886;28;27465;-52
2021/04/21 12:11:36;;;;;;;7.95;5.85;;;23.00;55.30;;;;;;5073680;28;27434;-51
2021/04/21 12:14:30;;;;;;;7.43;6.72;;;22.90;53.20;;;;;;5105769;28;27493;-53
2021/04/21 12:17:28;;;;;;;6.82;5.65;;;22.90;53.50;;;;;;5090080;28;27530;-50
2021/04/21 12:20:24;;;;;;;6.95;5.68;;;22.70;52.50;;;;;;5105531;28;27375;-51
2021/04/21 12:23:30;;;;;;;6.63;5.68;;;22.40;50.90;;;;;;5102659;28;27328;-50
2021/04/21 12:26:26;;;;;;;8.38;5.65;;;22.20;53.50;;;;;;5105877;28;27895;-51
2021/04/21 12:29:15;;;;;;;6.35;5.72;;;22.00;55.80;;;;;;5106083;28;27371;-53
2021/04/21 12:32:16;;;;;;;7.72;5.97;;;21.90;55.60;;;;;;5106088;28;27453;-49
2021/04/21 12:35:07;;;;;;;7.43;6.03;;;21.70;55.60;;;;;;5105722;28;27340;-52
2021/04/21 12:37:59;;;;;;;8.20;5.55;;;21.60;53.90;;;;;;5105689;28;27894;-50
2021/04/21 12:40:57;;;;;;;6.80;5.85;;;21.50;52.40;;;;;;5104263;28;27502;-49
2021/04/21 12:43:43;;;;;;;8.45;6.20;;;21.40;53.50;;;;;;5105557;28;27418;-48
2021/04/21 12:46:28;;;;;;;7.38;6.50;;;21.50;55.50;;;;;;5103006;27;27593;-47
2021/04/21 12:49:37;;;;;;;6.43;5.72;;;21.60;57.20;;;;;;5105725;28;27329;-48
2021/04/21 12:53:03;;;;;;;5.90;5.15;;;21.80;56.50;;;;;;5105083;28;27404;-51
2021/04/21 12:56:40;;;;;;;6.55;5.70;;;22.00;59.30;;;;;;5104846;28;26962;-55
2021/04/21 13:00:10;;;;;;;8.73;6.70;;;22.40;57.20;;;;;;5105213;28;27468;-48
2021/04/21 13:03:24;;;;;;;9.52;6.93;;;22.70;55.00;;;;;;5105055;28;27345;-49
2021/04/21 13:06:12;;;;;;;10.13;6.68;;;22.80;54.30;;;;;;5105092;28;27381;-46
2021/04/21 13:09:20;;;;;;;9.25;6.25;;;22.80;53.50;;;;;;5104876;28;27616;-46
2021/04/21 13:12:11;;;;;;;7.57;6.25;;;22.70;53.10;;;;;;5105282;28;27411;-46
2021/04/21 13:15:10;;;;;;;6.80;5.75;;;22.50;51.50;;;;;;5101058;28;27280;-58
2021/04/21 13:18:16;;;;;;;9.40;6.50;;;22.40;50.40;;;;;;5100719;28;27572;-59
2021/04/21 13:21:28;;;;;;;10.25;6.05;;;22.20;49.70;;;;;;5104682;28;27453;-59
2021/04/21 13:24:25;;;;;;;5.85;5.28;;;22.10;49.70;;;;;;5101669;28;27392;-55
2021/04/21 13:27:18;;;;;;;8.50;5.72;;;22.20;51.10;;;;;;5104952;28;27444;-59
2021/04/21 13:30:19;;;;;;;7.93;5.82;;;22.20;50.80;;;;;;5104939;28;27496;-56
2021/04/21 13:33:46;;;;;;;8.60;6.30;;;22.20;49.60;;;;;;5105052;28;27358;-58
2021/04/21 13:36:59;;;;;;;9.13;6.32;;;22.30;51.20;;;;;;5104266;28;27336;-56
2021/04/21 13:40:07;;;;;;;11.30;6.13;;;22.40;51.50;;;;;;5100897;28;27322;-59
2021/04/21 13:43:34;;;;;;;9.05;6.90;;;22.50;51.80;;;;;;5104930;28;27476;-59
2021/04/21 13:46:37;;;;;;;8.43;6.65;;;22.50;51.70;;;;;;5103463;28;27481;-59
2021/04/21 13:49:44;;;;;;;9.35;5.53;;;22.50;50.20;;;;;;5104574;28;26945;-59
2021/04/21 13:53:10;;;;;;;9.27;5.13;;;22.60;53.20;;;;;;5103937;28;27449;-59
2021/04/21 13:56:24;;;;;;;6.20;5.15;;;22.70;51.70;;;;;;5104183;28;27506;-58
2021/04/21 13:59:26;;;;;;;8.13;6.47;;;22.60;51.80;;;;;;5101114;28;27344;-59
2021/04/21 14:02:34;;;;;;;7.82;6.22;;;22.50;52.30;;;;;;5104145;28;27342;-58
2021/04/21 14:06:02;;;;;;;10.75;6.13;;;22.40;52.60;;;;;;5103183;28;27442;-58
2021/04/21 14:09:29;;;;;;;7.25;6.13;;;22.40;51.90;;;;;;5103866;28;27431;-59
2021/04/21 14:12:35;;;;;;;7.65;5.97;;;22.40;52.60;;;;;;5103562;28;27403;-59
2021/04/21 14:15:46;;;;;;;8.50;6.45;;;22.30;53.90;;;;;;5103865;28;27603;-59
2021/04/21 14:19:13;;;;;;;8.70;7.70;;;22.30;52.50;;;;;;5103140;28;27468;-59
2021/04/21 14:22:35;;;;;;;8.73;7.15;;;22.30;53.50;;;;;;5100853;28;27513;-59
2021/04/21 14:26:01;;;;;;;7.80;6.88;;;22.30;53.60;;;;;;5104189;28;27476;-58
2021/04/21 14:29:09;;;;;;;8.73;7.82;;;22.30;51.10;;;;;;5104087;28;27447;-58
2021/04/21 14:32:09;;;;;;;8.05;6.50;;;22.30;52.00;;;;;;5102998;28;27328;-58
2021/04/21 14:35:36;;;;;;;8.07;7.22;;;22.20;52.30;;;;;;5103991;28;27420;-58
2021/04/21 14:38:39;;;;;;;8.77;6.68;;;22.10;50.80;;;;;;5104298;28;27489;-59
2021/04/21 14:42:06;;;;;;;9.68;6.68;;;22.10;50.80;;;;;;5103951;28;27456;-58
2021/04/21 14:46:13;;;;;;;7.45;6.55;;;22.00;51.40;;;;;;5100677;28;27411;-58
2021/04/21 14:50:08;;;;;;;8.38;6.90;;;21.90;51.80;;;;;;5100835;28;27419;-58
2021/04/21 14:53:56;;;;;;;9.95;6.68;;;22.00;51.80;;;;;;5103679;28;27418;-58
2021/04/21 14:58:07;;;;;;;7.03;5.88;;;22.10;49.70;;;;;;5100151;28;27374;-58
2021/04/21 15:01:34;;;;;;;9.15;5.88;;;22.30;49.70;;;;;;5103101;28;27957;-58
2021/04/21 15:04:31;;;;;;;7.25;6.40;;;22.30;51.40;;;;;;5103251;28;27336;-58
2021/04/21 15:07:41;;;;;;;7.68;5.82;;;22.40;50.80;;;;;;5103635;28;27413;-58
2021/04/21 15:10:59;;;;;;;6.22;5.55;;;22.50;51.00;;;;;;5105462;27;27476;-58
2021/04/21 15:14:05;;;;;;;6.03;5.30;;;22.50;50.70;;;;;;5107303;28;27408;-58
2021/04/21 15:16:54;;;;;;;6.35;5.13;;;22.50;49.00;;;;;;5106694;28;27399;-58
2021/04/21 15:20:01;;;;;;;8.45;5.95;;;22.40;50.80;;;;;;5106516;28;27498;-58
2021/04/21 15:23:10;;;;;;;8.07;6.35;;;22.40;49.20;;;;;;5103913;28;27387;-58
2021/04/21 15:26:18;;;;;;;6.55;5.60;;;22.20;48.00;;;;;;5105912;28;27825;-58
2021/04/21 15:29:30;;;;;;;7.15;5.53;;;22.00;47.70;;;;;;5103651;28;27419;-58
2021/04/21 15:32:57;;;;;;;6.70;5.68;;;21.80;49.40;;;;;;5106867;28;27347;-58
2021/04/21 15:36:58;;;;;;;6.95;5.47;;;21.60;48.00;;;;;;5103289;28;27390;-58
2021/04/21 15:40:31;;;;;;;6.40;5.60;;;21.40;49.60;;;;;;5106153;28;27390;-58
2021/04/21 15:44:01;;;;;;;10.98;5.65;;;21.20;50.00;;;;;;5090941;28;27400;-58
2021/04/21 15:47:51;;;;;;;6.50;5.40;;;21.00;50.20;;;;;;5103305;28;27398;-58
2021/04/21 15:51:24;;;;;;;7.30;5.60;;;20.80;50.60;;;;;;5103501;28;27409;-58
2021/04/21 15:54:58;;;;;;;7.68;5.35;;;20.70;50.30;;;;;;5105738;28;27384;-58
2021/04/21 15:58:28;;;;;;;6.07;5.00;;;20.70;51.50;;;;;;5102217;28;27470;-58
2021/04/21 16:02:09;;;;;;;8.43;5.47;;;20.80;51.60;;;;;;5106526;28;27335;-58
2021/04/21 16:05:18;;;;;;;6.20;5.35;;;20.80;51.10;;;;;;5106219;28;27391;-58
2021/04/21 16:08:47;;;;;;;7.63;5.70;;;20.80;51.10;;;;;;5106109;28;27375;-58
2021/04/21 16:12:15;;;;;;;7.85;5.70;;;20.90;50.50;;;;;;5104200;28;27480;-58
2021/04/21 16:15:33;;;;;;;6.20;5.10;;;21.00;51.20;;;;;;5106048;28;27393;-58
2021/04/21 16:19:04;;;;;;;8.23;5.47;;;21.00;50.80;;;;;;5105936;28;27434;-58
2021/04/21 16:21:58;;;;;;;10.18;5.40;;;21.00;51.00;;;;;;5105120;28;27940;-58
2021/04/21 16:25:28;;;;;;;6.57;5.20;;;21.00;51.70;;;;;;5091067;28;27519;-58
2021/04/21 16:29:04;;;;;;;5.82;5.07;;;21.00;50.70;;;;;;5102446;28;27407;-58
2021/04/21 16:32:31;;;;;;;9.18;4.93;;;21.10;51.40;;;;;;5106076;28;27309;-58